KDNL/DNL METAR and TAF weather

Enter ICAO airport designator
Station Type Date Time Source
KDNL METAR 2020/12/06 01:53 UTC NOAA

KDNL 060153Z AUTO 28003KT 10SM CLR 11/03 A3006 RMK AO2 SLP177 T01110028


Station Type Date Time Source
KDNL Decoded METAR 2020/12/06 01:53 UTC NOAA

AUGUSTA DANIEL FIELD, GA, United States (KDNL) 33-28N 82-02W 130M
Dec 05, 2020 - 08:53 PM EST / 2020.12.06 0153 UTC
Wind: from the W (280 degrees) at 3 MPH (3 KT):0
Visibility: 10 mile(s):0
Sky conditions: clear
Temperature: 52.0 F (11.1 C)
Dew Point: 37.0 F (2.8 C)
Relative Humidity: 56%
Pressure (altimeter): 30.06 in. Hg (1017 hPa)
ob: KDNL 060153Z AUTO 28003KT 10SM CLR 11/03 A3006 RMK AO2 SLP177 T01110028
cycle: 2

Station Type Date Time Source
KDNL TAF 2020/12/05 22:42 UTC NOAA

TAF
AMD KDNL 052140Z 0522/0618 31007KT P6SM SKC
FM060200 VRB04KT P6SM SKC

Example: see airport list